AFR29PL LFRB-LFBZ
Flight info
| Callsign | AFR29PL |
|---|---|
| Flight time | 1h 7m |
| Altitude | 37000 |
| Route | ROSPO DCT KORER UM616 TUPAR DCT CNA DCT VAVIX/N0392F190 DCT MAGEC |
| Aircraft | A320/M-SDE3FGHIRWY/LB1 |
Departure
| Time | 2026-05-01 13:35 |
|---|---|
| Airport | Brest Bretagne airport (LFRB) |
Arrival
| Time | 2026-05-01 14:43 |
|---|---|
| Airport | Biarritz Pays Basque airport (LFBZ) |
| Time | Latitude | Longitude | Altitude | Speed | Heading |
|---|---|---|---|---|---|
| 2026-05-01 13:07 | 48.44424 | -4.42035 | 317 ft | 0 kts | 161° |
| 2026-05-01 13:25 | 48.44441 | -4.42042 | 315 ft | 4 kts | 175° |
| 2026-05-01 13:25 | 48.44466 | -4.42037 | 316 ft | 4 kts | 221° |
| 2026-05-01 13:25 | 48.44475 | -4.42019 | 316 ft | 0 kts | 251° |
| 2026-05-01 13:28 | 48.44562 | -4.42099 | 317 ft | 16 kts | 342° |
| 2026-05-01 13:28 | 48.44631 | -4.42133 | 318 ft | 0 kts | 342° |
| 2026-05-01 13:30 | 48.44706 | -4.42169 | 320 ft | 0 kts | 354° |
| 2026-05-01 13:31 | 48.44725 | -4.42132 | 320 ft | 8 kts | 65° |
| 2026-05-01 13:32 | 48.44799 | -4.41835 | 320 ft | 22 kts | 72° |
| 2026-05-01 13:33 | 48.44978 | -4.41012 | 317 ft | 30 kts | 70° |
| 2026-05-01 13:33 | 48.45117 | -4.40384 | 319 ft | 33 kts | 72° |
| 2026-05-01 13:34 | 48.45197 | -4.39936 | 319 ft | 12 kts | 77° |
| 2026-05-01 13:34 | 48.45199 | -4.40033 | 317 ft | 11 kts | 251° |
| 2026-05-01 13:35 | 48.45113 | -4.40399 | 319 ft | 69 kts | 251° |
| 2026-05-01 13:35 | 48.44895 | -4.41354 | 318 ft | 122 kts | 251° |
| 2026-05-01 13:35 | 48.44266 | -4.44115 | 1032 ft | 139 kts | 250° |
| 2026-05-01 13:36 | 48.44006 | -4.45498 | 1696 ft | 131 kts | 252° |
| 2026-05-01 13:36 | 48.43777 | -4.46772 | 2194 ft | 127 kts | 249° |
| 2026-05-01 13:36 | 48.43117 | -4.49323 | 2975 ft | 133 kts | 249° |
| 2026-05-01 13:37 | 48.42860 | -4.50455 | 3377 ft | 137 kts | 250° |
| 2026-05-01 13:37 | 48.42559 | -4.51932 | 3673 ft | 155 kts | 259° |
| 2026-05-01 13:37 | 48.42703 | -4.53625 | 4073 ft | 176 kts | 289° |
| 2026-05-01 13:37 | 48.43535 | -4.55107 | 4534 ft | 201 kts | 323° |
| 2026-05-01 13:38 | 48.46415 | -4.54506 | 5406 ft | 241 kts | 44° |
| 2026-05-01 13:38 | 48.47517 | -4.52578 | 5842 ft | 244 kts | 54° |
| 2026-05-01 13:38 | 48.48490 | -4.50482 | 6284 ft | 245 kts | 57° |
| 2026-05-01 13:39 | 48.49414 | -4.48317 | 6718 ft | 245 kts | 65° |
| 2026-05-01 13:39 | 48.49814 | -4.45874 | 7126 ft | 240 kts | 96° |
| 2026-05-01 13:39 | 48.49412 | -4.43480 | 7598 ft | 245 kts | 124° |
| 2026-05-01 13:39 | 48.48271 | -4.41513 | 7976 ft | 260 kts | 144° |
| 2026-05-01 13:40 | 48.46837 | -4.39679 | 8558 ft | 276 kts | 144° |
| 2026-05-01 13:40 | 48.45360 | -4.37791 | 9397 ft | 281 kts | 144° |
| 2026-05-01 13:40 | 48.43860 | -4.35868 | 10276 ft | 285 kts | 144° |
| 2026-05-01 13:40 | 48.42294 | -4.33864 | 10672 ft | 307 kts | 144° |
| 2026-05-01 13:41 | 48.40606 | -4.31708 | 10927 ft | 331 kts | 143° |
| 2026-05-01 13:41 | 48.38824 | -4.29423 | 11287 ft | 347 kts | 143° |
| 2026-05-01 13:41 | 48.36973 | -4.27042 | 11994 ft | 353 kts | 142° |
| 2026-05-01 13:41 | 48.35102 | -4.24627 | 12768 ft | 356 kts | 142° |
| 2026-05-01 13:42 | 48.33216 | -4.22195 | 13557 ft | 359 kts | 142° |
| 2026-05-01 13:42 | 48.31311 | -4.19745 | 14292 ft | 362 kts | 142° |
| 2026-05-01 13:42 | 48.29389 | -4.17284 | 14967 ft | 364 kts | 142° |
| 2026-05-01 13:42 | 48.27449 | -4.14802 | 15634 ft | 367 kts | 142° |
| 2026-05-01 13:43 | 48.25501 | -4.12311 | 16314 ft | 370 kts | 142° |
| 2026-05-01 13:43 | 48.23538 | -4.09804 | 16983 ft | 372 kts | 142° |
| 2026-05-01 13:43 | 48.21585 | -4.07313 | 17645 ft | 375 kts | 142° |
| 2026-05-01 13:43 | 48.19590 | -4.04768 | 18319 ft | 378 kts | 142° |
| 2026-05-01 13:44 | 48.17577 | -4.02207 | 18912 ft | 381 kts | 142° |
| 2026-05-01 13:44 | 48.15549 | -3.99632 | 19464 ft | 384 kts | 142° |
| 2026-05-01 13:44 | 48.13515 | -3.97047 | 20039 ft | 387 kts | 142° |
| 2026-05-01 13:44 | 48.11457 | -3.94436 | 20593 ft | 390 kts | 142° |
| 2026-05-01 13:45 | 48.09379 | -3.91801 | 21137 ft | 393 kts | 142° |
| 2026-05-01 13:45 | 48.07286 | -3.89142 | 21661 ft | 396 kts | 142° |
| 2026-05-01 13:45 | 48.05181 | -3.86477 | 22162 ft | 399 kts | 142° |
| 2026-05-01 13:45 | 48.03081 | -3.83827 | 22651 ft | 402 kts | 142° |
| 2026-05-01 13:46 | 48.00937 | -3.81127 | 23121 ft | 405 kts | 142° |
| 2026-05-01 13:46 | 47.98803 | -3.78347 | 23577 ft | 410 kts | 138° |
| 2026-05-01 13:46 | 47.96949 | -3.75087 | 23989 ft | 416 kts | 128° |
| 2026-05-01 13:46 | 47.95488 | -3.71332 | 24363 ft | 423 kts | 118° |
| 2026-05-01 13:47 | 47.94457 | -3.67180 | 24714 ft | 429 kts | 111° |
| 2026-05-01 13:47 | 47.93548 | -3.62928 | 25073 ft | 431 kts | 111° |
| 2026-05-01 13:47 | 47.92628 | -3.58664 | 25434 ft | 434 kts | 111° |
| 2026-05-01 13:47 | 47.91698 | -3.54376 | 25786 ft | 436 kts | 111° |
| 2026-05-01 13:48 | 47.90773 | -3.50116 | 26135 ft | 439 kts | 111° |
| 2026-05-01 13:48 | 47.89828 | -3.45780 | 26472 ft | 441 kts | 111° |
| 2026-05-01 13:48 | 47.88877 | -3.41430 | 26810 ft | 443 kts | 111° |
| 2026-05-01 13:48 | 47.87918 | -3.37051 | 27107 ft | 446 kts | 111° |
| 2026-05-01 13:49 | 47.86948 | -3.32647 | 27416 ft | 448 kts | 111° |
| 2026-05-01 13:49 | 47.85974 | -3.28230 | 27723 ft | 450 kts | 111° |
| 2026-05-01 13:49 | 47.84996 | -3.23791 | 28045 ft | 452 kts | 111° |
| 2026-05-01 13:49 | 47.84017 | -3.19337 | 28327 ft | 454 kts | 111° |
| 2026-05-01 13:50 | 47.83043 | -3.14916 | 28603 ft | 456 kts | 111° |
| 2026-05-01 13:50 | 47.82050 | -3.10418 | 28873 ft | 458 kts | 111° |
| 2026-05-01 13:50 | 47.81055 | -3.05910 | 29147 ft | 460 kts | 111° |
| 2026-05-01 13:50 | 47.80053 | -3.01382 | 29398 ft | 462 kts | 111° |
| 2026-05-01 13:51 | 47.79042 | -2.96834 | 29634 ft | 463 kts | 111° |
| 2026-05-01 13:51 | 47.78025 | -2.92293 | 29943 ft | 463 kts | 111° |
| 2026-05-01 13:51 | 47.77006 | -2.87749 | 30264 ft | 463 kts | 111° |
| 2026-05-01 13:51 | 47.75988 | -2.83214 | 30510 ft | 463 kts | 111° |
| 2026-05-01 13:52 | 47.74968 | -2.78672 | 30760 ft | 464 kts | 111° |
| 2026-05-01 13:52 | 47.73959 | -2.74178 | 30995 ft | 465 kts | 111° |
| 2026-05-01 13:52 | 47.72933 | -2.69627 | 31240 ft | 465 kts | 111° |
| 2026-05-01 13:52 | 47.71903 | -2.65070 | 31490 ft | 466 kts | 111° |
| 2026-05-01 13:53 | 47.70868 | -2.60506 | 31738 ft | 467 kts | 111° |
| 2026-05-01 13:53 | 47.68559 | -2.51510 | 32208 ft | 465 kts | 120° |
| 2026-05-01 13:53 | 47.66869 | -2.47441 | 32445 ft | 463 kts | 129° |
| 2026-05-01 13:54 | 47.64823 | -2.43769 | 32673 ft | 462 kts | 134° |
| 2026-05-01 13:54 | 47.62736 | -2.40223 | 32928 ft | 462 kts | 134° |
| 2026-05-01 13:54 | 47.60630 | -2.36626 | 33185 ft | 463 kts | 133° |
| 2026-05-01 13:54 | 47.58525 | -2.33016 | 33438 ft | 463 kts | 133° |
| 2026-05-01 13:55 | 47.56419 | -2.29399 | 33690 ft | 464 kts | 133° |
| 2026-05-01 13:55 | 47.54307 | -2.25781 | 33923 ft | 465 kts | 133° |
| 2026-05-01 13:55 | 47.52188 | -2.22164 | 34165 ft | 466 kts | 134° |
| 2026-05-01 13:55 | 47.50060 | -2.18543 | 34406 ft | 466 kts | 134° |
| 2026-05-01 13:56 | 47.47935 | -2.14935 | 34664 ft | 465 kts | 134° |
| 2026-05-01 13:56 | 47.45835 | -2.11378 | 34924 ft | 464 kts | 134° |
| 2026-05-01 13:56 | 47.43713 | -2.07792 | 35173 ft | 463 kts | 134° |
| 2026-05-01 13:56 | 47.41593 | -2.04213 | 35466 ft | 462 kts | 134° |
| 2026-05-01 13:57 | 47.39485 | -2.00654 | 35730 ft | 460 kts | 134° |
| 2026-05-01 13:57 | 47.37381 | -1.97104 | 35979 ft | 459 kts | 134° |
| 2026-05-01 13:57 | 47.35283 | -1.93565 | 36199 ft | 458 kts | 134° |
| 2026-05-01 13:57 | 47.33185 | -1.90027 | 36436 ft | 458 kts | 133° |
| 2026-05-01 13:58 | 47.31096 | -1.86503 | 36642 ft | 457 kts | 134° |
| 2026-05-01 13:58 | 47.29007 | -1.82983 | 36861 ft | 456 kts | 134° |
| 2026-05-01 13:58 | 47.26949 | -1.79517 | 37079 ft | 455 kts | 134° |
| 2026-05-01 13:58 | 47.24867 | -1.76012 | 37180 ft | 455 kts | 134° |
| 2026-05-01 13:59 | 47.20695 | -1.69014 | 37192 ft | 455 kts | 134° |
| 2026-05-01 13:59 | 47.16519 | -1.62035 | 37191 ft | 453 kts | 136° |
| 2026-05-01 14:00 | 47.11903 | -1.55784 | 37193 ft | 451 kts | 141° |
| 2026-05-01 14:00 | 47.07250 | -1.49690 | 37201 ft | 451 kts | 141° |
| 2026-05-01 14:01 | 47.02577 | -1.43557 | 37203 ft | 451 kts | 141° |
| 2026-05-01 14:01 | 46.97898 | -1.37428 | 37211 ft | 451 kts | 141° |
| 2026-05-01 14:02 | 46.93217 | -1.31309 | 37210 ft | 451 kts | 141° |
| 2026-05-01 14:02 | 46.88566 | -1.25235 | 37213 ft | 451 kts | 141° |
| 2026-05-01 14:03 | 46.83879 | -1.19145 | 37208 ft | 451 kts | 141° |
| 2026-05-01 14:03 | 46.79192 | -1.13052 | 37212 ft | 451 kts | 141° |
| 2026-05-01 14:04 | 46.74512 | -1.06976 | 37209 ft | 451 kts | 141° |
| 2026-05-01 14:04 | 46.69825 | -1.00915 | 37209 ft | 450 kts | 141° |
| 2026-05-01 14:05 | 46.65163 | -0.94908 | 37201 ft | 450 kts | 141° |
| 2026-05-01 14:05 | 46.60471 | -0.88877 | 37193 ft | 450 kts | 141° |
| 2026-05-01 14:06 | 46.55781 | -0.82846 | 37189 ft | 450 kts | 141° |
| 2026-05-01 14:06 | 46.51103 | -0.76802 | 37181 ft | 450 kts | 141° |
| 2026-05-01 14:07 | 46.46454 | -0.70807 | 37186 ft | 450 kts | 141° |
| 2026-05-01 14:08 | 46.38437 | -0.64200 | 37191 ft | 441 kts | 165° |
| 2026-05-01 14:08 | 46.32516 | -0.61483 | 37185 ft | 441 kts | 165° |
| 2026-05-01 14:09 | 46.26736 | -0.58810 | 37192 ft | 442 kts | 165° |
| 2026-05-01 14:09 | 46.20875 | -0.56108 | 37195 ft | 442 kts | 165° |
| 2026-05-01 14:10 | 46.15054 | -0.53448 | 37186 ft | 442 kts | 165° |
| 2026-05-01 14:10 | 46.09193 | -0.50764 | 37192 ft | 442 kts | 165° |
| 2026-05-01 14:11 | 46.03333 | -0.48082 | 37197 ft | 442 kts | 165° |
| 2026-05-01 14:11 | 45.94535 | -0.44078 | 37196 ft | 442 kts | 165° |
| 2026-05-01 14:12 | 45.88669 | -0.41427 | 37200 ft | 442 kts | 165° |
| 2026-05-01 14:12 | 45.82804 | -0.38784 | 37198 ft | 442 kts | 165° |
| 2026-05-01 14:13 | 45.77935 | -0.36581 | 37194 ft | 441 kts | 165° |
| 2026-05-01 14:13 | 45.71118 | -0.33574 | 37190 ft | 440 kts | 171° |
| 2026-05-01 14:14 | 45.68093 | -0.33213 | 37194 ft | 435 kts | 186° |
| 2026-05-01 14:14 | 45.65136 | -0.33997 | 37193 ft | 432 kts | 198° |
| 2026-05-01 14:14 | 45.59409 | -0.36611 | 37187 ft | 432 kts | 199° |
| 2026-05-01 14:15 | 45.53686 | -0.39287 | 37175 ft | 433 kts | 199° |
| 2026-05-01 14:15 | 45.47957 | -0.41970 | 37179 ft | 434 kts | 199° |
| 2026-05-01 14:16 | 45.42251 | -0.44621 | 37181 ft | 435 kts | 199° |
| 2026-05-01 14:16 | 45.36493 | -0.47269 | 37181 ft | 435 kts | 199° |
| 2026-05-01 14:17 | 45.30726 | -0.49913 | 37188 ft | 436 kts | 199° |
| 2026-05-01 14:17 | 45.24955 | -0.52561 | 37185 ft | 436 kts | 199° |
| 2026-05-01 14:18 | 45.19193 | -0.55209 | 37186 ft | 435 kts | 199° |
| 2026-05-01 14:18 | 45.14397 | -0.57405 | 37179 ft | 436 kts | 199° |
| 2026-05-01 14:19 | 45.07689 | -0.60463 | 37175 ft | 436 kts | 199° |
| 2026-05-01 14:19 | 45.01910 | -0.63086 | 37176 ft | 436 kts | 199° |
| 2026-05-01 14:20 | 44.93238 | -0.67017 | 37156 ft | 436 kts | 199° |
| 2026-05-01 14:20 | 44.90342 | -0.68333 | 36253 ft | 441 kts | 199° |
| 2026-05-01 14:21 | 44.87438 | -0.69652 | 35212 ft | 446 kts | 199° |
| 2026-05-01 14:21 | 44.84473 | -0.70999 | 34222 ft | 449 kts | 199° |
| 2026-05-01 14:21 | 44.81498 | -0.72347 | 33116 ft | 451 kts | 199° |
| 2026-05-01 14:22 | 44.75485 | -0.75058 | 30787 ft | 456 kts | 199° |
| 2026-05-01 14:22 | 44.72448 | -0.76425 | 29526 ft | 459 kts | 198° |
| 2026-05-01 14:22 | 44.69399 | -0.77797 | 28140 ft | 462 kts | 198° |
| 2026-05-01 14:22 | 44.66331 | -0.79179 | 26839 ft | 463 kts | 198° |
| 2026-05-01 14:23 | 44.63275 | -0.80552 | 25711 ft | 460 kts | 198° |
| 2026-05-01 14:23 | 44.60247 | -0.81907 | 24889 ft | 453 kts | 198° |
| 2026-05-01 14:23 | 44.57273 | -0.83237 | 24114 ft | 445 kts | 198° |
| 2026-05-01 14:23 | 44.54339 | -0.84548 | 23277 ft | 439 kts | 198° |
| 2026-05-01 14:24 | 44.51443 | -0.85837 | 22405 ft | 435 kts | 198° |
| 2026-05-01 14:24 | 44.48610 | -0.87097 | 21545 ft | 431 kts | 198° |
| 2026-05-01 14:24 | 44.45765 | -0.88361 | 20626 ft | 429 kts | 198° |
| 2026-05-01 14:24 | 44.42923 | -0.89624 | 19846 ft | 426 kts | 198° |
| 2026-05-01 14:25 | 44.40157 | -0.90856 | 19678 ft | 408 kts | 198° |
| 2026-05-01 14:25 | 44.37497 | -0.92043 | 19288 ft | 397 kts | 198° |
| 2026-05-01 14:25 | 44.34879 | -0.93211 | 18728 ft | 393 kts | 198° |
| 2026-05-01 14:25 | 44.32279 | -0.94368 | 18123 ft | 390 kts | 198° |
| 2026-05-01 14:26 | 44.29708 | -0.95505 | 17590 ft | 385 kts | 198° |
| 2026-05-01 14:26 | 44.24820 | -0.97660 | 16611 ft | 362 kts | 198° |
| 2026-05-01 14:26 | 44.22426 | -0.98719 | 16118 ft | 360 kts | 198° |
| 2026-05-01 14:27 | 44.20044 | -0.99775 | 15637 ft | 358 kts | 198° |
| 2026-05-01 14:27 | 44.17683 | -1.00821 | 15131 ft | 355 kts | 198° |
| 2026-05-01 14:27 | 44.15338 | -1.01857 | 14616 ft | 352 kts | 198° |
| 2026-05-01 14:28 | 44.10664 | -1.03918 | 13503 ft | 350 kts | 198° |
| 2026-05-01 14:28 | 44.08353 | -1.04936 | 12944 ft | 347 kts | 198° |
| 2026-05-01 14:28 | 44.06092 | -1.05927 | 12381 ft | 344 kts | 198° |
| 2026-05-01 14:28 | 44.03817 | -1.06925 | 11801 ft | 342 kts | 198° |
| 2026-05-01 14:29 | 44.01558 | -1.07915 | 11207 ft | 339 kts | 198° |
| 2026-05-01 14:29 | 43.99345 | -1.08884 | 11025 ft | 326 kts | 197° |
| 2026-05-01 14:30 | 43.93283 | -1.11536 | 10648 ft | 286 kts | 197° |
| 2026-05-01 14:30 | 43.91415 | -1.12357 | 10424 ft | 278 kts | 197° |
| 2026-05-01 14:30 | 43.89587 | -1.13158 | 10182 ft | 274 kts | 197° |
| 2026-05-01 14:31 | 43.85991 | -1.14725 | 9906 ft | 272 kts | 197° |
| 2026-05-01 14:31 | 43.84185 | -1.15512 | 9769 ft | 272 kts | 197° |
| 2026-05-01 14:31 | 43.82380 | -1.16299 | 9616 ft | 272 kts | 197° |
| 2026-05-01 14:31 | 43.80579 | -1.17085 | 9292 ft | 270 kts | 197° |
| 2026-05-01 14:32 | 43.78795 | -1.17863 | 8933 ft | 268 kts | 197° |
| 2026-05-01 14:32 | 43.77036 | -1.18711 | 8563 ft | 267 kts | 205° |
| 2026-05-01 14:32 | 43.75491 | -1.20119 | 8197 ft | 267 kts | 221° |
| 2026-05-01 14:32 | 43.74310 | -1.22090 | 7862 ft | 268 kts | 237° |
| 2026-05-01 14:33 | 43.73561 | -1.24457 | 7534 ft | 270 kts | 248° |
| 2026-05-01 14:33 | 43.72941 | -1.26859 | 7207 ft | 268 kts | 247° |
| 2026-05-01 14:33 | 43.72312 | -1.29275 | 6876 ft | 267 kts | 247° |
| 2026-05-01 14:33 | 43.71683 | -1.31677 | 6543 ft | 264 kts | 247° |
| 2026-05-01 14:34 | 43.71055 | -1.34064 | 6206 ft | 264 kts | 247° |
| 2026-05-01 14:34 | 43.70424 | -1.36457 | 5878 ft | 266 kts | 247° |
| 2026-05-01 14:34 | 43.69790 | -1.38859 | 5543 ft | 266 kts | 247° |
| 2026-05-01 14:34 | 43.69157 | -1.41261 | 5217 ft | 266 kts | 245° |
| 2026-05-01 14:35 | 43.68329 | -1.43516 | 5035 ft | 264 kts | 239° |
| 2026-05-01 14:35 | 43.67441 | -1.45744 | 4979 ft | 266 kts | 238° |
| 2026-05-01 14:35 | 43.66569 | -1.47952 | 4916 ft | 265 kts | 239° |
| 2026-05-01 14:35 | 43.65687 | -1.50194 | 4853 ft | 266 kts | 239° |
| 2026-05-01 14:36 | 43.64802 | -1.52438 | 4750 ft | 267 kts | 239° |
| 2026-05-01 14:36 | 43.63918 | -1.54673 | 4625 ft | 263 kts | 238° |
| 2026-05-01 14:36 | 43.63041 | -1.56882 | 4497 ft | 262 kts | 238° |
| 2026-05-01 14:36 | 43.62091 | -1.59023 | 4371 ft | 260 kts | 231° |
| 2026-05-01 14:37 | 43.61014 | -1.61028 | 4250 ft | 261 kts | 231° |
| 2026-05-01 14:37 | 43.59931 | -1.63050 | 4003 ft | 261 kts | 231° |
| 2026-05-01 14:37 | 43.58899 | -1.64983 | 3927 ft | 246 kts | 231° |
| 2026-05-01 14:37 | 43.57917 | -1.66822 | 3844 ft | 232 kts | 230° |
| 2026-05-01 14:38 | 43.56987 | -1.68566 | 3748 ft | 220 kts | 229° |
| 2026-05-01 14:38 | 43.56096 | -1.70226 | 3637 ft | 210 kts | 228° |
| 2026-05-01 14:38 | 43.55040 | -1.71439 | 3577 ft | 189 kts | 200° |
| 2026-05-01 14:38 | 43.53820 | -1.71754 | 3454 ft | 171 kts | 173° |
| 2026-05-01 14:39 | 43.52742 | -1.71327 | 3233 ft | 156 kts | 149° |
| 2026-05-01 14:39 | 43.51957 | -1.70408 | 3013 ft | 142 kts | 128° |
| 2026-05-01 14:39 | 43.51356 | -1.69403 | 2816 ft | 135 kts | 128° |
| 2026-05-01 14:39 | 43.50759 | -1.68422 | 2636 ft | 132 kts | 129° |
| 2026-05-01 14:40 | 43.50170 | -1.67457 | 2452 ft | 132 kts | 128° |
| 2026-05-01 14:40 | 43.49583 | -1.66494 | 2276 ft | 131 kts | 128° |
| 2026-05-01 14:40 | 43.49000 | -1.65536 | 2096 ft | 131 kts | 128° |
| 2026-05-01 14:40 | 43.48414 | -1.64575 | 1919 ft | 130 kts | 128° |
| 2026-05-01 14:41 | 43.47836 | -1.63625 | 1737 ft | 129 kts | 128° |
| 2026-05-01 14:41 | 43.47275 | -1.62658 | 1553 ft | 129 kts | 120° |
| 2026-05-01 14:41 | 43.46988 | -1.61505 | 1382 ft | 128 kts | 95° |
| 2026-05-01 14:41 | 43.46962 | -1.60284 | 1219 ft | 128 kts | 91° |
| 2026-05-01 14:42 | 43.46910 | -1.59074 | 1046 ft | 128 kts | 95° |
| 2026-05-01 14:42 | 43.46801 | -1.57856 | 848 ft | 129 kts | 96° |
| 2026-05-01 14:42 | 43.46763 | -1.56602 | 664 ft | 131 kts | 86° |
| 2026-05-01 14:42 | 43.46801 | -1.55368 | 487 ft | 129 kts | 88° |
| 2026-05-01 14:43 | 43.46819 | -1.54128 | 337 ft | 130 kts | 87° |
| 2026-05-01 14:43 | 43.46833 | -1.52914 | 258 ft | 117 kts | 88° |
| 2026-05-01 14:43 | 43.46845 | -1.52274 | 250 ft | 33 kts | 89° |
| 2026-05-01 14:43 | 43.46921 | -1.52175 | 250 ft | 14 kts | 360° |
| 2026-05-01 14:44 | 43.46929 | -1.52175 | 250 ft | 0 kts | 357° |
| 2026-05-01 14:44 | 43.46933 | -1.52176 | 250 ft | 4 kts | 357° |
| 2026-05-01 14:44 | 43.46994 | -1.52217 | 250 ft | 15 kts | 300° |
| 2026-05-01 14:45 | 43.46998 | -1.52351 | 251 ft | 13 kts | 269° |
| 2026-05-01 14:45 | 43.46995 | -1.52575 | 253 ft | 10 kts | 269° |
| 2026-05-01 14:45 | 43.46994 | -1.52678 | 253 ft | 13 kts | 269° |
| 2026-05-01 14:46 | 43.46994 | -1.52824 | 254 ft | 16 kts | 278° |
| 2026-05-01 14:46 | 43.47054 | -1.53057 | 256 ft | 12 kts | 267° |
| 2026-05-01 14:46 | 43.47051 | -1.53148 | 257 ft | 8 kts | 270° |
| 2026-05-01 14:47 | 43.47060 | -1.53165 | 257 ft | 1 kts | 317° |
| 2026-05-01 14:47 | 43.47081 | -1.53188 | 257 ft | 5 kts | 328° |
| 2026-05-01 14:47 | 43.47110 | -1.53195 | 257 ft | 4 kts | 359° |
| 2026-05-01 14:48 | 43.47123 | -1.53195 | 257 ft | 0 kts | 359° |